sensor_id;sensor_type;location;lat;lon;timestamp;temperature;humidity
19340;HTU21D;9804;52.350;6.684;2022-12-10T00:01:49;0.01;-6.00
19340;HTU21D;9804;52.350;6.684;2022-12-10T00:04:15;-0.05;-6.00
19340;HTU21D;9804;52.350;6.684;2022-12-10T00:06:41;-0.11;-6.00
19340;HTU21D;9804;52.350;6.684;2022-12-10T00:09:09;-0.12;-6.00
19340;HTU21D;9804;52.350;6.684;2022-12-10T00:11:36;-0.09;-6.00
19340;HTU21D;9804;52.350;6.684;2022-12-10T00:14:02;-0.12;-6.00
19340;HTU21D;9804;52.350;6.684;2022-12-10T00:16:28;-0.11;-6.00
19340;HTU21D;9804;52.350;6.684;2022-12-10T00:18:55;-0.15;-6.00
19340;HTU21D;9804;52.350;6.684;2022-12-10T00:21:23;-0.14;-6.00
19340;HTU21D;9804;52.350;6.684;2022-12-10T00:23:49;-0.15;-6.00
19340;HTU21D;9804;52.350;6.684;2022-12-10T00:26:18;-0.14;-6.00
19340;HTU21D;9804;52.350;6.684;2022-12-10T00:28:44;-0.12;-6.00
19340;HTU21D;9804;52.350;6.684;2022-12-10T00:31:31;-0.11;-6.00
19340;HTU21D;9804;52.350;6.684;2022-12-10T00:34:00;-0.10;-6.00
19340;HTU21D;9804;52.350;6.684;2022-12-10T00:36:30;-0.14;-6.00
19340;HTU21D;9804;52.350;6.684;2022-12-10T00:38:56;-0.16;-6.00
19340;HTU21D;9804;52.350;6.684;2022-12-10T00:41:22;-0.19;-6.00
19340;HTU21D;9804;52.350;6.684;2022-12-10T00:43:48;-0.24;-6.00
19340;HTU21D;9804;52.350;6.684;2022-12-10T00:46:14;-0.25;-6.00
19340;HTU21D;9804;52.350;6.684;2022-12-10T00:48:41;-0.25;-6.00
19340;HTU21D;9804;52.350;6.684;2022-12-10T00:51:09;-0.26;-6.00
19340;HTU21D;9804;52.350;6.684;2022-12-10T00:53:37;-0.27;-6.00
19340;HTU21D;9804;52.350;6.684;2022-12-10T00:56:03;-0.28;-6.00
19340;HTU21D;9804;52.350;6.684;2022-12-10T00:58:31;-0.28;-6.00
19340;HTU21D;9804;52.350;6.684;2022-12-10T01:01:13;-0.31;-6.00
19340;HTU21D;9804;52.350;6.684;2022-12-10T01:03:40;-0.37;-6.00
19340;HTU21D;9804;52.350;6.684;2022-12-10T01:06:17;-0.38;-6.00
19340;HTU21D;9804;52.350;6.684;2022-12-10T01:08:44;-0.32;-6.00
19340;HTU21D;9804;52.350;6.684;2022-12-10T01:11:11;-0.22;-6.00
19340;HTU21D;9804;52.350;6.684;2022-12-10T01:13:37;-0.22;-6.00
19340;HTU21D;9804;52.350;6.684;2022-12-10T01:16:04;-0.24;-6.00
19340;HTU21D;9804;52.350;6.684;2022-12-10T01:18:30;-0.23;-6.00
19340;HTU21D;9804;52.350;6.684;2022-12-10T01:21:01;-0.21;-6.00
19340;HTU21D;9804;52.350;6.684;2022-12-10T01:23:27;-0.19;-6.00
19340;HTU21D;9804;52.350;6.684;2022-12-10T01:25:52;-0.21;-6.00
19340;HTU21D;9804;52.350;6.684;2022-12-10T01:28:17;-0.19;-6.00
19340;HTU21D;9804;52.350;6.684;2022-12-10T01:30:43;-0.22;-6.00
19340;HTU21D;9804;52.350;6.684;2022-12-10T01:33:08;-0.15;-6.00
19340;HTU21D;9804;52.350;6.684;2022-12-10T01:35:37;-0.13;-6.00
19340;HTU21D;9804;52.350;6.684;2022-12-10T01:38:02;-0.07;-6.00
19340;HTU21D;9804;52.350;6.684;2022-12-10T01:40:28;0.01;-6.00
19340;HTU21D;9804;52.350;6.684;2022-12-10T01:42:53;0.09;-6.00
19340;HTU21D;9804;52.350;6.684;2022-12-10T01:45:19;0.14;-6.00
19340;HTU21D;9804;52.350;6.684;2022-12-10T01:47:44;0.20;-6.00
19340;HTU21D;9804;52.350;6.684;2022-12-10T01:50:10;0.25;-6.00
19340;HTU21D;9804;52.350;6.684;2022-12-10T01:52:36;0.31;-6.00
19340;HTU21D;9804;52.350;6.684;2022-12-10T01:55:05;0.28;-6.00
19340;HTU21D;9804;52.350;6.684;2022-12-10T01:57:31;0.31;-6.00
19340;HTU21D;9804;52.350;6.684;2022-12-10T01:59:58;0.39;-6.00
19340;HTU21D;9804;52.350;6.684;2022-12-10T02:02:42;0.47;-6.00
19340;HTU21D;9804;52.350;6.684;2022-12-10T02:10:41;0.59;-6.00
19340;HTU21D;9804;52.350;6.684;2022-12-10T02:13:18;0.68;-6.00
19340;HTU21D;9804;52.350;6.684;2022-12-10T02:15:52;0.78;-6.00
19340;HTU21D;9804;52.350;6.684;2022-12-10T02:18:30;0.86;-6.00
19340;HTU21D;9804;52.350;6.684;2022-12-10T02:21:00;0.92;-6.00
19340;HTU21D;9804;52.350;6.684;2022-12-10T02:23:51;0.94;-6.00
19340;HTU21D;9804;52.350;6.684;2022-12-10T02:26:37;1.02;-6.00
19340;HTU21D;9804;52.350;6.684;2022-12-10T02:29:17;1.06;-6.00
19340;HTU21D;9804;52.350;6.684;2022-12-10T02:31:47;1.05;-6.00
19340;HTU21D;9804;52.350;6.684;2022-12-10T02:34:15;1.11;-6.00
19340;HTU21D;9804;52.350;6.684;2022-12-10T02:36:44;1.12;-6.00
19340;HTU21D;9804;52.350;6.684;2022-12-10T02:39:14;1.13;-6.00
19340;HTU21D;9804;52.350;6.684;2022-12-10T02:41:45;1.16;-6.00
19340;HTU21D;9804;52.350;6.684;2022-12-10T02:44:13;1.14;-6.00
19340;HTU21D;9804;52.350;6.684;2022-12-10T02:46:42;1.13;-6.00
19340;HTU21D;9804;52.350;6.684;2022-12-10T02:49:11;1.17;-6.00
19340;HTU21D;9804;52.350;6.684;2022-12-10T02:51:38;1.19;-6.00
19340;HTU21D;9804;52.350;6.684;2022-12-10T02:54:06;1.23;-6.00
19340;HTU21D;9804;52.350;6.684;2022-12-10T02:56:42;1.21;-6.00
19340;HTU21D;9804;52.350;6.684;2022-12-10T02:59:24;1.25;-6.00
19340;HTU21D;9804;52.350;6.684;2022-12-10T03:04:33;1.25;-6.00
19340;HTU21D;9804;52.350;6.684;2022-12-10T03:07:08;1.20;-6.00
19340;HTU21D;9804;52.350;6.684;2022-12-10T03:09:47;1.08;-6.00
19340;HTU21D;9804;52.350;6.684;2022-12-10T03:12:22;0.93;-6.00
19340;HTU21D;9804;52.350;6.684;2022-12-10T03:14:50;0.88;-6.00
19340;HTU21D;9804;52.350;6.684;2022-12-10T03:17:15;0.93;-6.00
19340;HTU21D;9804;52.350;6.684;2022-12-10T03:19:45;0.87;-6.00
19340;HTU21D;9804;52.350;6.684;2022-12-10T03:22:14;0.76;-6.00
19340;HTU21D;9804;52.350;6.684;2022-12-10T03:24:43;0.77;-6.00
19340;HTU21D;9804;52.350;6.684;2022-12-10T03:27:09;0.73;-6.00
19340;HTU21D;9804;52.350;6.684;2022-12-10T03:29:45;0.65;-6.00
19340;HTU21D;9804;52.350;6.684;2022-12-10T03:32:13;0.68;-6.00
19340;HTU21D;9804;52.350;6.684;2022-12-10T03:34:39;0.62;-6.00
19340;HTU21D;9804;52.350;6.684;2022-12-10T03:37:05;0.68;-6.00
19340;HTU21D;9804;52.350;6.684;2022-12-10T03:39:31;0.71;-6.00
19340;HTU21D;9804;52.350;6.684;2022-12-10T03:41:57;0.65;-6.00
19340;HTU21D;9804;52.350;6.684;2022-12-10T03:44:34;0.61;-6.00
19340;HTU21D;9804;52.350;6.684;2022-12-10T03:47:01;0.49;-6.00
19340;HTU21D;9804;52.350;6.684;2022-12-10T03:49:26;0.45;-6.00
19340;HTU21D;9804;52.350;6.684;2022-12-10T03:51:52;0.45;-6.00
19340;HTU21D;9804;52.350;6.684;2022-12-10T03:54:17;0.50;-6.00
19340;HTU21D;9804;52.350;6.684;2022-12-10T03:56:43;0.53;-6.00
19340;HTU21D;9804;52.350;6.684;2022-12-10T03:59:08;0.47;-6.00
19340;HTU21D;9804;52.350;6.684;2022-12-10T04:01:33;0.44;-6.00
19340;HTU21D;9804;52.350;6.684;2022-12-10T04:03:59;0.34;-6.00
19340;HTU21D;9804;52.350;6.684;2022-12-10T04:06:24;0.30;-6.00
19340;HTU21D;9804;52.350;6.684;2022-12-10T04:08:52;0.28;-6.00
19340;HTU21D;9804;52.350;6.684;2022-12-10T04:11:17;0.30;-6.00
19340;HTU21D;9804;52.350;6.684;2022-12-10T04:13:43;0.23;-6.00
19340;HTU21D;9804;52.350;6.684;2022-12-10T04:16:28;0.13;-6.00
19340;HTU21D;9804;52.350;6.684;2022-12-10T04:18:59;0.06;-6.00
19340;HTU21D;9804;52.350;6.684;2022-12-10T04:21:26;-0.00;-6.00
19340;HTU21D;9804;52.350;6.684;2022-12-10T04:24:11;-0.05;-6.00
19340;HTU21D;9804;52.350;6.684;2022-12-10T04:26:57;-0.05;-6.00
19340;HTU21D;9804;52.350;6.684;2022-12-10T04:29:25;0.04;-6.00
19340;HTU21D;9804;52.350;6.684;2022-12-10T04:31:51;0.09;-6.00
19340;HTU21D;9804;52.350;6.684;2022-12-10T04:34:17;0.06;-6.00
19340;HTU21D;9804;52.350;6.684;2022-12-10T04:36:42;0.03;-6.00
19340;HTU21D;9804;52.350;6.684;2022-12-10T04:39:07;-0.03;-6.00
19340;HTU21D;9804;52.350;6.684;2022-12-10T04:41:33;-0.03;-6.00
19340;HTU21D;9804;52.350;6.684;2022-12-10T04:43:58;-0.03;-6.00
19340;HTU21D;9804;52.350;6.684;2022-12-10T04:46:24;-0.06;-6.00
19340;HTU21D;9804;52.350;6.684;2022-12-10T04:48:49;-0.11;-6.00
19340;HTU21D;9804;52.350;6.684;2022-12-10T04:51:14;-0.17;-6.00
19340;HTU21D;9804;52.350;6.684;2022-12-10T04:53:40;-0.10;-6.00
19340;HTU21D;9804;52.350;6.684;2022-12-10T04:56:05;-0.01;-6.00
19340;HTU21D;9804;52.350;6.684;2022-12-10T04:58:32;0.03;-6.00
19340;HTU21D;9804;52.350;6.684;2022-12-10T05:01:06;0.02;-6.00
19340;HTU21D;9804;52.350;6.684;2022-12-10T05:03:32;-0.01;-6.00
19340;HTU21D;9804;52.350;6.684;2022-12-10T05:06:06;-0.10;-6.00
19340;HTU21D;9804;52.350;6.684;2022-12-10T05:08:31;-0.10;-6.00
19340;HTU21D;9804;52.350;6.684;2022-12-10T05:11:02;-0.05;-6.00
19340;HTU21D;9804;52.350;6.684;2022-12-10T05:13:27;0.01;-6.00
19340;HTU21D;9804;52.350;6.684;2022-12-10T05:15:53;0.03;-6.00
19340;HTU21D;9804;52.350;6.684;2022-12-10T05:18:18;-0.06;-6.00
19340;HTU21D;9804;52.350;6.684;2022-12-10T05:20:43;-0.09;-6.00
19340;HTU21D;9804;52.350;6.684;2022-12-10T05:23:09;-0.08;-6.00
19340;HTU21D;9804;52.350;6.684;2022-12-10T05:26:14;0.12;-6.00
19340;HTU21D;9804;52.350;6.684;2022-12-10T05:28:45;0.08;-6.00
19340;HTU21D;9804;52.350;6.684;2022-12-10T05:31:17;0.03;-6.00
19340;HTU21D;9804;52.350;6.684;2022-12-10T05:33:42;0.09;-6.00
19340;HTU21D;9804;52.350;6.684;2022-12-10T05:36:10;-0.02;-6.00
19340;HTU21D;9804;52.350;6.684;2022-12-10T05:38:37;-0.08;-6.00
19340;HTU21D;9804;52.350;6.684;2022-12-10T05:41:08;-0.07;-6.00
19340;HTU21D;9804;52.350;6.684;2022-12-10T05:43:33;-0.08;-6.00
19340;HTU21D;9804;52.350;6.684;2022-12-10T05:46:00;-0.09;-6.00
19340;HTU21D;9804;52.350;6.684;2022-12-10T05:48:26;-0.03;-6.00
19340;HTU21D;9804;52.350;6.684;2022-12-10T05:50:51;-0.07;-6.00
19340;HTU21D;9804;52.350;6.684;2022-12-10T05:53:16;-0.07;-6.00
19340;HTU21D;9804;52.350;6.684;2022-12-10T05:55:43;-0.07;-6.00
19340;HTU21D;9804;52.350;6.684;2022-12-10T05:58:08;-0.03;-6.00
19340;HTU21D;9804;52.350;6.684;2022-12-10T06:00:34;-0.01;-6.00
19340;HTU21D;9804;52.350;6.684;2022-12-10T06:02:59;-0.06;-6.00
19340;HTU21D;9804;52.350;6.684;2022-12-10T06:05:24;-0.14;-6.00
19340;HTU21D;9804;52.350;6.684;2022-12-10T06:07:50;-0.11;-6.00
19340;HTU21D;9804;52.350;6.684;2022-12-10T06:10:15;-0.07;-6.00
19340;HTU21D;9804;52.350;6.684;2022-12-10T06:12:40;0.04;-6.00
19340;HTU21D;9804;52.350;6.684;2022-12-10T06:15:06;0.12;-6.00
19340;HTU21D;9804;52.350;6.684;2022-12-10T06:17:32;0.14;-6.00
19340;HTU21D;9804;52.350;6.684;2022-12-10T06:19:57;0.07;-6.00
19340;HTU21D;9804;52.350;6.684;2022-12-10T06:22:23;0.10;-6.00
19340;HTU21D;9804;52.350;6.684;2022-12-10T06:24:48;0.03;-6.00
19340;HTU21D;9804;52.350;6.684;2022-12-10T06:27:13;0.01;-6.00
19340;HTU21D;9804;52.350;6.684;2022-12-10T06:29:39;0.06;-6.00
19340;HTU21D;9804;52.350;6.684;2022-12-10T06:32:05;0.06;-6.00
19340;HTU21D;9804;52.350;6.684;2022-12-10T06:34:30;-0.00;-6.00
19340;HTU21D;9804;52.350;6.684;2022-12-10T06:36:56;-0.05;-6.00
19340;HTU21D;9804;52.350;6.684;2022-12-10T06:39:21;0.05;-6.00
19340;HTU21D;9804;52.350;6.684;2022-12-10T06:41:46;0.03;-6.00
19340;HTU21D;9804;52.350;6.684;2022-12-10T06:44:12;0.06;-6.00
19340;HTU21D;9804;52.350;6.684;2022-12-10T06:46:39;0.07;-6.00
19340;HTU21D;9804;52.350;6.684;2022-12-10T06:49:06;0.06;-6.00
19340;HTU21D;9804;52.350;6.684;2022-12-10T06:51:31;0.04;-6.00
19340;HTU21D;9804;52.350;6.684;2022-12-10T06:53:57;0.06;-6.00
19340;HTU21D;9804;52.350;6.684;2022-12-10T06:56:22;-0.16;-6.00
19340;HTU21D;9804;52.350;6.684;2022-12-10T06:58:48;-0.05;-6.00
19340;HTU21D;9804;52.350;6.684;2022-12-10T07:01:16;-0.07;-6.00
19340;HTU21D;9804;52.350;6.684;2022-12-10T07:03:42;-0.03;-6.00
19340;HTU21D;9804;52.350;6.684;2022-12-10T07:06:08;0.02;-6.00
19340;HTU21D;9804;52.350;6.684;2022-12-10T07:08:34;-0.03;-6.00
19340;HTU21D;9804;52.350;6.684;2022-12-10T07:11:03;0.02;-6.00
19340;HTU21D;9804;52.350;6.684;2022-12-10T07:13:29;-0.16;-6.00
19340;HTU21D;9804;52.350;6.684;2022-12-10T07:15:54;-0.14;-6.00
19340;HTU21D;9804;52.350;6.684;2022-12-10T07:18:19;-0.12;-6.00
19340;HTU21D;9804;52.350;6.684;2022-12-10T07:20:45;-0.08;-6.00
19340;HTU21D;9804;52.350;6.684;2022-12-10T07:23:10;0.03;-6.00
19340;HTU21D;9804;52.350;6.684;2022-12-10T07:25:35;0.10;-6.00
19340;HTU21D;9804;52.350;6.684;2022-12-10T07:28:01;-0.02;-6.00
19340;HTU21D;9804;52.350;6.684;2022-12-10T07:30:26;-0.05;-6.00
19340;HTU21D;9804;52.350;6.684;2022-12-10T07:32:51;-0.01;-6.00
19340;HTU21D;9804;52.350;6.684;2022-12-10T07:35:17;-0.01;-6.00
19340;HTU21D;9804;52.350;6.684;2022-12-10T07:37:42;0.07;-6.00
19340;HTU21D;9804;52.350;6.684;2022-12-10T07:40:08;0.09;-6.00
19340;HTU21D;9804;52.350;6.684;2022-12-10T07:42:34;0.08;-6.00
19340;HTU21D;9804;52.350;6.684;2022-12-10T07:44:59;0.09;-6.00
19340;HTU21D;9804;52.350;6.684;2022-12-10T07:47:24;0.07;-6.00
19340;HTU21D;9804;52.350;6.684;2022-12-10T07:49:50;0.03;-6.00
19340;HTU21D;9804;52.350;6.684;2022-12-10T07:52:15;0.06;-6.00
19340;HTU21D;9804;52.350;6.684;2022-12-10T07:54:41;0.05;-6.00
19340;HTU21D;9804;52.350;6.684;2022-12-10T07:57:06;0.22;-6.00
19340;HTU21D;9804;52.350;6.684;2022-12-10T07:59:31;0.25;-6.00
19340;HTU21D;9804;52.350;6.684;2022-12-10T08:01:57;0.36;-6.00
19340;HTU21D;9804;52.350;6.684;2022-12-10T08:04:22;0.31;-6.00
19340;HTU21D;9804;52.350;6.684;2022-12-10T08:06:48;0.28;-6.00
19340;HTU21D;9804;52.350;6.684;2022-12-10T08:09:13;0.32;-6.00
19340;HTU21D;9804;52.350;6.684;2022-12-10T08:11:38;0.24;-6.00
19340;HTU21D;9804;52.350;6.684;2022-12-10T08:14:04;0.45;-6.00
19340;HTU21D;9804;52.350;6.684;2022-12-10T08:16:29;0.46;-6.00
19340;HTU21D;9804;52.350;6.684;2022-12-10T08:18:58;0.38;-6.00
19340;HTU21D;9804;52.350;6.684;2022-12-10T08:21:26;0.63;-6.00
19340;HTU21D;9804;52.350;6.684;2022-12-10T08:23:53;0.69;-6.00
19340;HTU21D;9804;52.350;6.684;2022-12-10T08:26:23;0.76;-6.00
19340;HTU21D;9804;52.350;6.684;2022-12-10T08:28:50;0.99;-6.00
19340;HTU21D;9804;52.350;6.684;2022-12-10T08:31:18;1.06;-6.00
19340;HTU21D;9804;52.350;6.684;2022-12-10T08:33:43;0.95;-6.00
19340;HTU21D;9804;52.350;6.684;2022-12-10T08:36:12;1.03;-6.00
19340;HTU21D;9804;52.350;6.684;2022-12-10T08:38:38;1.18;-6.00
19340;HTU21D;9804;52.350;6.684;2022-12-10T08:41:17;1.23;-6.00
19340;HTU21D;9804;52.350;6.684;2022-12-10T08:43:43;1.13;-6.00
19340;HTU21D;9804;52.350;6.684;2022-12-10T08:46:10;1.03;-6.00
19340;HTU21D;9804;52.350;6.684;2022-12-10T08:48:36;0.79;-6.00
19340;HTU21D;9804;52.350;6.684;2022-12-10T08:51:03;1.04;-6.00
19340;HTU21D;9804;52.350;6.684;2022-12-10T08:53:29;1.31;-6.00
19340;HTU21D;9804;52.350;6.684;2022-12-10T08:55:55;1.27;-6.00
19340;HTU21D;9804;52.350;6.684;2022-12-10T08:58:21;1.28;-6.00
19340;HTU21D;9804;52.350;6.684;2022-12-10T09:00:47;1.04;-6.00
19340;HTU21D;9804;52.350;6.684;2022-12-10T09:03:12;1.36;-6.00
19340;HTU21D;9804;52.350;6.684;2022-12-10T09:05:38;1.38;-6.00
19340;HTU21D;9804;52.350;6.684;2022-12-10T09:08:04;1.69;-6.00
19340;HTU21D;9804;52.350;6.684;2022-12-10T09:10:29;1.61;-6.00
19340;HTU21D;9804;52.350;6.684;2022-12-10T09:12:54;1.77;-6.00
19340;HTU21D;9804;52.350;6.684;2022-12-10T09:15:20;1.76;-6.00
19340;HTU21D;9804;52.350;6.684;2022-12-10T09:17:45;1.80;-6.00
19340;HTU21D;9804;52.350;6.684;2022-12-10T09:20:10;1.52;-6.00
19340;HTU21D;9804;52.350;6.684;2022-12-10T09:22:36;1.50;-6.00
19340;HTU21D;9804;52.350;6.684;2022-12-10T09:25:03;1.39;-6.00
19340;HTU21D;9804;52.350;6.684;2022-12-10T09:27:30;1.46;-6.00
19340;HTU21D;9804;52.350;6.684;2022-12-10T09:29:55;1.20;-6.00
19340;HTU21D;9804;52.350;6.684;2022-12-10T09:32:20;1.51;-6.00
19340;HTU21D;9804;52.350;6.684;2022-12-10T09:34:46;1.56;-6.00
19340;HTU21D;9804;52.350;6.684;2022-12-10T09:37:11;1.63;-6.00
19340;HTU21D;9804;52.350;6.684;2022-12-10T09:39:36;1.95;-6.00
19340;HTU21D;9804;52.350;6.684;2022-12-10T09:45:01;1.60;-6.00
19340;HTU21D;9804;52.350;6.684;2022-12-10T09:53:15;1.76;-6.00
19340;HTU21D;9804;52.350;6.684;2022-12-10T09:55:45;2.00;-6.00
19340;HTU21D;9804;52.350;6.684;2022-12-10T09:58:19;1.78;-6.00
19340;HTU21D;9804;52.350;6.684;2022-12-10T10:00:48;1.41;-6.00
19340;HTU21D;9804;52.350;6.684;2022-12-10T10:03:16;1.47;-6.00
19340;HTU21D;9804;52.350;6.684;2022-12-10T10:05:44;1.64;-6.00
19340;HTU21D;9804;52.350;6.684;2022-12-10T10:08:31;1.80;-6.00
19340;HTU21D;9804;52.350;6.684;2022-12-10T10:10:59;1.68;-6.00
19340;HTU21D;9804;52.350;6.684;2022-12-10T10:13:42;1.57;-6.00
19340;HTU21D;9804;52.350;6.684;2022-12-10T10:16:22;1.78;-6.00
19340;HTU21D;9804;52.350;6.684;2022-12-10T10:19:06;1.94;-6.00
19340;HTU21D;9804;52.350;6.684;2022-12-10T10:21:38;1.81;-6.00
19340;HTU21D;9804;52.350;6.684;2022-12-10T10:24:06;1.98;-6.00
19340;HTU21D;9804;52.350;6.684;2022-12-10T10:26:32;1.78;-6.00
19340;HTU21D;9804;52.350;6.684;2022-12-10T10:29:04;1.64;-6.00
19340;HTU21D;9804;52.350;6.684;2022-12-10T10:31:32;1.45;-6.00
19340;HTU21D;9804;52.350;6.684;2022-12-10T10:34:03;1.76;-6.00
19340;HTU21D;9804;52.350;6.684;2022-12-10T10:36:34;2.15;-6.00
19340;HTU21D;9804;52.350;6.684;2022-12-10T10:39:27;1.94;-6.00
19340;HTU21D;9804;52.350;6.684;2022-12-10T10:41:54;2.05;-6.00
19340;HTU21D;9804;52.350;6.684;2022-12-10T10:44:23;1.98;-6.00
19340;HTU21D;9804;52.350;6.684;2022-12-10T10:46:53;1.96;-6.00
19340;HTU21D;9804;52.350;6.684;2022-12-10T10:51:48;2.03;-6.00
19340;HTU21D;9804;52.350;6.684;2022-12-10T10:54:43;1.92;-6.00
19340;HTU21D;9804;52.350;6.684;2022-12-10T10:57:35;1.95;-6.00
19340;HTU21D;9804;52.350;6.684;2022-12-10T11:00:10;1.94;-6.00
19340;HTU21D;9804;52.350;6.684;2022-12-10T11:02:42;1.97;-6.00
19340;HTU21D;9804;52.350;6.684;2022-12-10T11:05:16;2.19;-6.00
19340;HTU21D;9804;52.350;6.684;2022-12-10T11:07:42;1.93;-6.00
19340;HTU21D;9804;52.350;6.684;2022-12-10T11:10:22;2.08;-6.00
19340;HTU21D;9804;52.350;6.684;2022-12-10T11:13:04;1.84;-6.00
19340;HTU21D;9804;52.350;6.684;2022-12-10T11:15:36;1.57;-6.00
19340;HTU21D;9804;52.350;6.684;2022-12-10T11:18:03;1.98;-6.00
19340;HTU21D;9804;52.350;6.684;2022-12-10T11:21:38;1.98;-6.00
19340;HTU21D;9804;52.350;6.684;2022-12-10T11:23:48;2.02;-6.00
19340;HTU21D;9804;52.350;6.684;2022-12-10T11:30:09;2.41;-6.00
19340;HTU21D;9804;52.350;6.684;2022-12-10T11:35:11;2.32;-6.00
19340;HTU21D;9804;52.350;6.684;2022-12-10T11:37:46;2.28;-6.00
19340;HTU21D;9804;52.350;6.684;2022-12-10T11:40:33;2.31;-6.00
19340;HTU21D;9804;52.350;6.684;2022-12-10T11:43:16;2.28;-6.00
19340;HTU21D;9804;52.350;6.684;2022-12-10T11:46:07;2.28;-6.00
19340;HTU21D;9804;52.350;6.684;2022-12-10T11:57:48;2.75;-6.00
19340;HTU21D;9804;52.350;6.684;2022-12-10T12:00:02;2.80;-6.00
19340;HTU21D;9804;52.350;6.684;2022-12-10T12:02:48;2.57;-6.00
19340;HTU21D;9804;52.350;6.684;2022-12-10T12:13:09;2.88;-6.00
19340;HTU21D;9804;52.350;6.684;2022-12-10T12:15:39;2.47;-6.00
19340;HTU21D;9804;52.350;6.684;2022-12-10T12:18:37;2.80;-6.00
19340;HTU21D;9804;52.350;6.684;2022-12-10T12:21:09;2.55;-6.00
19340;HTU21D;9804;52.350;6.684;2022-12-10T12:23:45;2.68;-6.00
19340;HTU21D;9804;52.350;6.684;2022-12-10T12:32:21;3.04;-6.00
19340;HTU21D;9804;52.350;6.684;2022-12-10T12:34:53;2.73;-6.00
19340;HTU21D;9804;52.350;6.684;2022-12-10T12:37:24;2.96;-6.00
19340;HTU21D;9804;52.350;6.684;2022-12-10T12:40:10;2.99;-6.00
19340;HTU21D;9804;52.350;6.684;2022-12-10T12:42:38;3.29;-6.00
19340;HTU21D;9804;52.350;6.684;2022-12-10T12:45:28;3.26;-6.00
19340;HTU21D;9804;52.350;6.684;2022-12-10T12:53:09;2.95;-6.00
19340;HTU21D;9804;52.350;6.684;2022-12-10T12:58:26;3.32;-6.00
19340;HTU21D;9804;52.350;6.684;2022-12-10T13:00:57;2.76;-6.00
19340;HTU21D;9804;52.350;6.684;2022-12-10T13:03:43;2.75;-6.00
19340;HTU21D;9804;52.350;6.684;2022-12-10T13:06:19;2.59;-6.00
19340;HTU21D;9804;52.350;6.684;2022-12-10T13:11:44;2.43;-6.00
19340;HTU21D;9804;52.350;6.684;2022-12-10T13:24:18;2.73;-6.00
19340;HTU21D;9804;52.350;6.684;2022-12-10T13:27:04;2.56;-6.00
19340;HTU21D;9804;52.350;6.684;2022-12-10T13:34:39;3.04;-6.00
19340;HTU21D;9804;52.350;6.684;2022-12-10T13:39:53;2.67;-6.00
19340;HTU21D;9804;52.350;6.684;2022-12-10T13:42:26;2.80;-6.00
19340;HTU21D;9804;52.350;6.684;2022-12-10T13:47:50;2.98;-6.00
19340;HTU21D;9804;52.350;6.684;2022-12-10T13:50:34;2.85;-6.00
19340;HTU21D;9804;52.350;6.684;2022-12-10T13:56:03;3.12;-6.00
19340;HTU21D;9804;52.350;6.684;2022-12-10T13:58:58;2.68;-6.00
19340;HTU21D;9804;52.350;6.684;2022-12-10T14:04:28;2.98;-6.00
19340;HTU21D;9804;52.350;6.684;2022-12-10T14:06:57;3.11;-6.00
19340;HTU21D;9804;52.350;6.684;2022-12-10T14:10:07;3.14;-6.00
19340;HTU21D;9804;52.350;6.684;2022-12-10T14:12:17;3.06;-6.00
19340;HTU21D;9804;52.350;6.684;2022-12-10T14:15:00;2.82;-6.00
19340;HTU21D;9804;52.350;6.684;2022-12-10T14:17:36;2.98;-6.00
19340;HTU21D;9804;52.350;6.684;2022-12-10T14:20:04;2.78;-6.00
19340;HTU21D;9804;52.350;6.684;2022-12-10T14:22:43;2.84;-6.00
19340;HTU21D;9804;52.350;6.684;2022-12-10T14:25:15;2.80;-6.00
19340;HTU21D;9804;52.350;6.684;2022-12-10T14:27:41;2.64;-6.00
19340;HTU21D;9804;52.350;6.684;2022-12-10T14:30:19;2.46;-6.00
19340;HTU21D;9804;52.350;6.684;2022-12-10T14:32:46;2.35;-6.00
19340;HTU21D;9804;52.350;6.684;2022-12-10T14:35:20;2.58;-6.00
19340;HTU21D;9804;52.350;6.684;2022-12-10T14:37:48;2.50;-6.00
19340;HTU21D;9804;52.350;6.684;2022-12-10T14:40:23;2.54;-6.00
19340;HTU21D;9804;52.350;6.684;2022-12-10T14:42:50;2.73;-6.00
19340;HTU21D;9804;52.350;6.684;2022-12-10T14:45:18;2.88;-6.00
19340;HTU21D;9804;52.350;6.684;2022-12-10T14:47:43;2.89;-6.00
19340;HTU21D;9804;52.350;6.684;2022-12-10T14:50:15;2.89;-6.00
19340;HTU21D;9804;52.350;6.684;2022-12-10T14:52:42;2.78;-6.00
19340;HTU21D;9804;52.350;6.684;2022-12-10T14:55:13;2.90;-6.00
19340;HTU21D;9804;52.350;6.684;2022-12-10T14:57:45;3.04;-6.00
19340;HTU21D;9804;52.350;6.684;2022-12-10T15:00:17;2.95;-6.00
19340;HTU21D;9804;52.350;6.684;2022-12-10T15:02:56;2.85;-6.00
19340;HTU21D;9804;52.350;6.684;2022-12-10T15:05:25;2.98;-6.00
19340;HTU21D;9804;52.350;6.684;2022-12-10T15:07:54;2.90;-6.00
19340;HTU21D;9804;52.350;6.684;2022-12-10T15:10:34;2.81;-6.00
19340;HTU21D;9804;52.350;6.684;2022-12-10T15:13:01;2.93;-6.00
19340;HTU21D;9804;52.350;6.684;2022-12-10T15:15:33;2.97;-6.00
19340;HTU21D;9804;52.350;6.684;2022-12-10T15:20:52;2.99;-6.00
19340;HTU21D;9804;52.350;6.684;2022-12-10T15:25:51;2.58;-6.00
19340;HTU21D;9804;52.350;6.684;2022-12-10T15:28:40;2.58;-6.00
19340;HTU21D;9804;52.350;6.684;2022-12-10T15:33:48;2.82;-6.00
19340;HTU21D;9804;52.350;6.684;2022-12-10T15:38:46;2.97;-6.00
19340;HTU21D;9804;52.350;6.684;2022-12-10T15:41:51;2.80;-6.00
19340;HTU21D;9804;52.350;6.684;2022-12-10T15:47:01;2.98;-6.00
19340;HTU21D;9804;52.350;6.684;2022-12-10T15:49:28;3.08;-6.00
19340;HTU21D;9804;52.350;6.684;2022-12-10T15:51:53;3.09;-6.00
19340;HTU21D;9804;52.350;6.684;2022-12-10T15:54:27;3.02;-6.00
19340;HTU21D;9804;52.350;6.684;2022-12-10T15:56:53;2.93;-6.00
19340;HTU21D;9804;52.350;6.684;2022-12-10T15:59:19;3.03;-6.00
19340;HTU21D;9804;52.350;6.684;2022-12-10T16:01:45;3.15;-6.00
19340;HTU21D;9804;52.350;6.684;2022-12-10T16:04:10;2.94;-6.00
19340;HTU21D;9804;52.350;6.684;2022-12-10T16:06:36;2.86;-6.00
19340;HTU21D;9804;52.350;6.684;2022-12-10T16:09:01;2.90;-6.00
19340;HTU21D;9804;52.350;6.684;2022-12-10T16:11:27;3.04;-6.00
19340;HTU21D;9804;52.350;6.684;2022-12-10T16:13:55;3.09;-6.00
19340;HTU21D;9804;52.350;6.684;2022-12-10T16:16:22;3.13;-6.00
19340;HTU21D;9804;52.350;6.684;2022-12-10T16:18:48;3.16;-6.00
19340;HTU21D;9804;52.350;6.684;2022-12-10T16:21:13;3.09;-6.00
19340;HTU21D;9804;52.350;6.684;2022-12-10T16:23:39;2.88;-6.00
19340;HTU21D;9804;52.350;6.684;2022-12-10T16:26:16;2.95;-6.00
19340;HTU21D;9804;52.350;6.684;2022-12-10T16:28:42;2.76;-6.00
19340;HTU21D;9804;52.350;6.684;2022-12-10T16:31:11;2.56;-6.00
19340;HTU21D;9804;52.350;6.684;2022-12-10T16:33:37;2.51;-6.00
19340;HTU21D;9804;52.350;6.684;2022-12-10T16:36:02;2.73;-6.00
19340;HTU21D;9804;52.350;6.684;2022-12-10T16:38:27;2.96;-6.00
19340;HTU21D;9804;52.350;6.684;2022-12-10T16:40:53;2.91;-6.00
19340;HTU21D;9804;52.350;6.684;2022-12-10T16:43:22;2.94;-6.00
19340;HTU21D;9804;52.350;6.684;2022-12-10T16:45:48;2.93;-6.00
19340;HTU21D;9804;52.350;6.684;2022-12-10T16:48:14;2.87;-6.00
19340;HTU21D;9804;52.350;6.684;2022-12-10T16:50:41;2.45;-6.00
19340;HTU21D;9804;52.350;6.684;2022-12-10T16:53:18;2.68;-6.00
19340;HTU21D;9804;52.350;6.684;2022-12-10T16:55:44;2.60;-6.00
19340;HTU21D;9804;52.350;6.684;2022-12-10T16:58:11;2.29;-6.00
19340;HTU21D;9804;52.350;6.684;2022-12-10T17:00:39;2.22;-6.00
19340;HTU21D;9804;52.350;6.684;2022-12-10T17:03:04;2.22;-6.00
19340;HTU21D;9804;52.350;6.684;2022-12-10T17:05:42;2.32;-6.00
19340;HTU21D;9804;52.350;6.684;2022-12-10T17:08:08;2.43;-6.00
19340;HTU21D;9804;52.350;6.684;2022-12-10T17:10:34;2.44;-6.00
19340;HTU21D;9804;52.350;6.684;2022-12-10T17:13:20;2.49;-6.00
19340;HTU21D;9804;52.350;6.684;2022-12-10T17:15:47;2.66;-6.00
19340;HTU21D;9804;52.350;6.684;2022-12-10T17:18:15;2.43;-6.00
19340;HTU21D;9804;52.350;6.684;2022-12-10T17:20:40;2.31;-6.00
19340;HTU21D;9804;52.350;6.684;2022-12-10T17:23:06;2.39;-6.00
19340;HTU21D;9804;52.350;6.684;2022-12-10T17:25:31;2.15;-6.00
19340;HTU21D;9804;52.350;6.684;2022-12-10T17:27:57;2.19;-6.00
19340;HTU21D;9804;52.350;6.684;2022-12-10T17:30:22;2.11;-6.00
19340;HTU21D;9804;52.350;6.684;2022-12-10T17:32:48;2.08;-6.00
19340;HTU21D;9804;52.350;6.684;2022-12-10T17:35:13;2.16;-6.00
19340;HTU21D;9804;52.350;6.684;2022-12-10T17:37:39;2.23;-6.00